sensor_id;sensor_type;location;lat;lon;timestamp;P1;durP1;ratioP1;P2;durP2;ratioP2
36185;SDS011;22228;53.222;7.446;2023-04-24T00:01:43;4.07;;;3.77;;
36185;SDS011;22228;53.222;7.446;2023-04-24T00:04:04;3.70;;;3.50;;
36185;SDS011;22228;53.222;7.446;2023-04-24T00:06:25;2.73;;;2.53;;
36185;SDS011;22228;53.222;7.446;2023-04-24T00:08:52;1.90;;;1.80;;
36185;SDS011;22228;53.222;7.446;2023-04-24T00:11:13;1.90;;;1.80;;
36185;SDS011;22228;53.222;7.446;2023-04-24T00:13:33;2.27;;;1.50;;
36185;SDS011;22228;53.222;7.446;2023-04-24T03:02:55;12.20;;;11.10;;
36185;SDS011;22228;53.222;7.446;2023-04-24T03:05:15;12.10;;;11.10;;
36185;SDS011;22228;53.222;7.446;2023-04-24T03:07:36;12.40;;;11.20;;
36185;SDS011;22228;53.222;7.446;2023-04-24T03:09:56;13.23;;;11.67;;
36185;SDS011;22228;53.222;7.446;2023-04-24T03:12:17;12.20;;;11.10;;
36185;SDS011;22228;53.222;7.446;2023-04-24T03:14:37;12.77;;;11.57;;
36185;SDS011;22228;53.222;7.446;2023-04-24T03:16:58;13.10;;;11.80;;
36185;SDS011;22228;53.222;7.446;2023-04-24T03:19:19;12.90;;;11.60;;
36185;SDS011;22228;53.222;7.446;2023-04-24T03:21:50;12.40;;;11.13;;
36185;SDS011;22228;53.222;7.446;2023-04-24T03:24:11;13.00;;;11.83;;
36185;SDS011;22228;53.222;7.446;2023-04-24T03:26:31;13.13;;;11.83;;
36185;SDS011;22228;53.222;7.446;2023-04-24T03:29:06;12.33;;;11.20;;
36185;SDS011;22228;53.222;7.446;2023-04-24T03:31:26;13.27;;;12.00;;
36185;SDS011;22228;53.222;7.446;2023-04-24T03:33:47;13.37;;;12.03;;
36185;SDS011;22228;53.222;7.446;2023-04-24T03:36:09;12.13;;;10.93;;
36185;SDS011;22228;53.222;7.446;2023-04-24T03:38:32;12.23;;;11.03;;
36185;SDS011;22228;53.222;7.446;2023-04-24T03:41:11;12.53;;;11.33;;
36185;SDS011;22228;53.222;7.446;2023-04-24T03:43:37;11.70;;;10.63;;
36185;SDS011;22228;53.222;7.446;2023-04-24T03:45:59;12.07;;;10.97;;
36185;SDS011;22228;53.222;7.446;2023-04-24T03:48:19;10.83;;;9.83;;
36185;SDS011;22228;53.222;7.446;2023-04-24T03:50:40;10.63;;;9.73;;
36185;SDS011;22228;53.222;7.446;2023-04-24T03:53:04;11.53;;;10.53;;
36185;SDS011;22228;53.222;7.446;2023-04-24T03:55:29;11.50;;;10.43;;
36185;SDS011;22228;53.222;7.446;2023-04-24T03:57:51;11.10;;;10.03;;
36185;SDS011;22228;53.222;7.446;2023-04-24T04:00:15;10.53;;;9.63;;
36185;SDS011;22228;53.222;7.446;2023-04-24T04:02:39;10.90;;;10.00;;
36185;SDS011;22228;53.222;7.446;2023-04-24T04:05:01;10.20;;;9.30;;
36185;SDS011;22228;53.222;7.446;2023-04-24T04:07:21;10.80;;;9.90;;
36185;SDS011;22228;53.222;7.446;2023-04-24T04:09:43;10.70;;;9.80;;
36185;SDS011;22228;53.222;7.446;2023-04-24T04:12:04;9.30;;;8.50;;
36185;SDS011;22228;53.222;7.446;2023-04-24T04:14:26;10.30;;;9.37;;
36185;SDS011;22228;53.222;7.446;2023-04-24T04:16:46;10.67;;;9.67;;
36185;SDS011;22228;53.222;7.446;2023-04-24T04:19:07;9.93;;;9.13;;
36185;SDS011;22228;53.222;7.446;2023-04-24T04:21:27;10.87;;;9.87;;
36185;SDS011;22228;53.222;7.446;2023-04-24T04:24:01;9.70;;;8.80;;
36185;SDS011;22228;53.222;7.446;2023-04-24T04:26:28;8.57;;;7.87;;
36185;SDS011;22228;53.222;7.446;2023-04-24T04:28:55;8.60;;;7.90;;
36185;SDS011;22228;53.222;7.446;2023-04-24T04:31:15;8.73;;;8.03;;
36185;SDS011;22228;53.222;7.446;2023-04-24T04:33:36;8.20;;;7.47;;
36185;SDS011;22228;53.222;7.446;2023-04-24T04:35:58;7.43;;;6.93;;
36185;SDS011;22228;53.222;7.446;2023-04-24T04:38:21;7.93;;;7.23;;
36185;SDS011;22228;53.222;7.446;2023-04-24T04:40:50;8.60;;;7.87;;
36185;SDS011;22228;53.222;7.446;2023-04-24T04:43:14;7.80;;;7.10;;
36185;SDS011;22228;53.222;7.446;2023-04-24T04:45:41;7.90;;;7.30;;
36185;SDS011;22228;53.222;7.446;2023-04-24T04:48:20;7.27;;;6.73;;
36185;SDS011;22228;53.222;7.446;2023-04-24T04:50:41;8.10;;;7.03;;
36185;SDS011;22228;53.222;7.446;2023-04-24T04:53:02;7.93;;;7.33;;
36185;SDS011;22228;53.222;7.446;2023-04-24T04:55:26;7.80;;;7.20;;
36185;SDS011;22228;53.222;7.446;2023-04-24T04:58:01;8.13;;;7.43;;
36185;SDS011;22228;53.222;7.446;2023-04-24T05:00:23;8.53;;;7.23;;
36185;SDS011;22228;53.222;7.446;2023-04-24T05:02:45;7.33;;;6.83;;
36185;SDS011;22228;53.222;7.446;2023-04-24T05:05:06;7.60;;;7.00;;
36185;SDS011;22228;53.222;7.446;2023-04-24T05:07:27;7.23;;;6.73;;
36185;SDS011;22228;53.222;7.446;2023-04-24T05:09:48;6.97;;;6.47;;
36185;SDS011;22228;53.222;7.446;2023-04-24T05:12:10;7.13;;;6.53;;
36185;SDS011;22228;53.222;7.446;2023-04-24T05:14:38;7.67;;;7.17;;
36185;SDS011;22228;53.222;7.446;2023-04-24T05:17:00;7.47;;;6.77;;
36185;SDS011;22228;53.222;7.446;2023-04-24T05:19:22;7.83;;;7.03;;
36185;SDS011;22228;53.222;7.446;2023-04-24T05:21:43;7.37;;;6.73;;
36185;SDS011;22228;53.222;7.446;2023-04-24T05:24:04;7.30;;;6.67;;
36185;SDS011;22228;53.222;7.446;2023-04-24T05:26:38;7.03;;;6.43;;
36185;SDS011;22228;53.222;7.446;2023-04-24T05:29:00;7.83;;;7.13;;
36185;SDS011;22228;53.222;7.446;2023-04-24T05:31:20;7.07;;;6.57;;
36185;SDS011;22228;53.222;7.446;2023-04-24T05:33:44;8.47;;;7.47;;
36185;SDS011;22228;53.222;7.446;2023-04-24T05:36:05;8.40;;;7.70;;
36185;SDS011;22228;53.222;7.446;2023-04-24T05:38:26;7.60;;;7.00;;
36185;SDS011;22228;53.222;7.446;2023-04-24T05:40:47;7.83;;;7.13;;
36185;SDS011;22228;53.222;7.446;2023-04-24T05:43:07;7.47;;;6.87;;
36185;SDS011;22228;53.222;7.446;2023-04-24T05:45:28;7.60;;;7.00;;
36185;SDS011;22228;53.222;7.446;2023-04-24T05:47:49;8.20;;;7.40;;
36185;SDS011;22228;53.222;7.446;2023-04-24T05:50:12;8.03;;;7.33;;
36185;SDS011;22228;53.222;7.446;2023-04-24T05:52:33;7.47;;;6.87;;
36185;SDS011;22228;53.222;7.446;2023-04-24T05:54:58;7.97;;;7.27;;
36185;SDS011;22228;53.222;7.446;2023-04-24T05:57:23;7.73;;;7.03;;
36185;SDS011;22228;53.222;7.446;2023-04-24T05:59:52;7.77;;;6.97;;
36185;SDS011;22228;53.222;7.446;2023-04-24T06:02:14;7.20;;;6.50;;
36185;SDS011;22228;53.222;7.446;2023-04-24T06:04:34;7.13;;;6.63;;
36185;SDS011;22228;53.222;7.446;2023-04-24T06:06:56;7.90;;;7.20;;
36185;SDS011;22228;53.222;7.446;2023-04-24T06:09:17;8.10;;;7.33;;
36185;SDS011;22228;53.222;7.446;2023-04-24T06:11:37;7.33;;;6.73;;
36185;SDS011;22228;53.222;7.446;2023-04-24T06:13:59;7.13;;;6.53;;
36185;SDS011;22228;53.222;7.446;2023-04-24T06:16:39;8.07;;;7.37;;
36185;SDS011;22228;53.222;7.446;2023-04-24T06:19:19;7.77;;;7.07;;
36185;SDS011;22228;53.222;7.446;2023-04-24T06:21:39;8.03;;;7.33;;
36185;SDS011;22228;53.222;7.446;2023-04-24T06:24:01;7.03;;;6.53;;
36185;SDS011;22228;53.222;7.446;2023-04-24T06:26:23;7.30;;;6.80;;
36185;SDS011;22228;53.222;7.446;2023-04-24T06:28:45;7.93;;;7.33;;
36185;SDS011;22228;53.222;7.446;2023-04-24T06:31:05;6.73;;;6.23;;
36185;SDS011;22228;53.222;7.446;2023-04-24T06:33:26;8.40;;;7.70;;
36185;SDS011;22228;53.222;7.446;2023-04-24T06:35:47;7.57;;;7.00;;
36185;SDS011;22228;53.222;7.446;2023-04-24T06:38:07;7.67;;;7.07;;
36185;SDS011;22228;53.222;7.446;2023-04-24T06:40:29;7.00;;;6.50;;
36185;SDS011;22228;53.222;7.446;2023-04-24T06:42:50;7.33;;;6.73;;
36185;SDS011;22228;53.222;7.446;2023-04-24T06:45:11;6.93;;;6.43;;
36185;SDS011;22228;53.222;7.446;2023-04-24T06:47:31;7.67;;;7.07;;
36185;SDS011;22228;53.222;7.446;2023-04-24T06:49:52;6.67;;;6.17;;
36185;SDS011;22228;53.222;7.446;2023-04-24T06:52:13;5.90;;;5.50;;
36185;SDS011;22228;53.222;7.446;2023-04-24T06:54:34;5.53;;;5.23;;
36185;SDS011;22228;53.222;7.446;2023-04-24T06:56:55;4.60;;;4.30;;
36185;SDS011;22228;53.222;7.446;2023-04-24T06:59:16;4.40;;;4.10;;
36185;SDS011;22228;53.222;7.446;2023-04-24T07:01:37;4.63;;;4.23;;
36185;SDS011;22228;53.222;7.446;2023-04-24T07:03:57;3.97;;;3.73;;
36185;SDS011;22228;53.222;7.446;2023-04-24T07:06:17;3.57;;;3.37;;
36185;SDS011;22228;53.222;7.446;2023-04-24T07:08:41;3.80;;;3.60;;
36185;SDS011;22228;53.222;7.446;2023-04-24T07:11:02;3.80;;;3.50;;
36185;SDS011;22228;53.222;7.446;2023-04-24T07:13:24;3.63;;;3.33;;
36185;SDS011;22228;53.222;7.446;2023-04-24T07:15:44;4.20;;;3.90;;
36185;SDS011;22228;53.222;7.446;2023-04-24T07:18:05;4.53;;;4.23;;
36185;SDS011;22228;53.222;7.446;2023-04-24T07:20:25;4.23;;;3.97;;
36185;SDS011;22228;53.222;7.446;2023-04-24T07:22:45;3.87;;;3.67;;
36185;SDS011;22228;53.222;7.446;2023-04-24T07:25:07;4.77;;;4.47;;
36185;SDS011;22228;53.222;7.446;2023-04-24T07:27:28;4.17;;;3.90;;
36185;SDS011;22228;53.222;7.446;2023-04-24T07:29:50;4.30;;;3.90;;
36185;SDS011;22228;53.222;7.446;2023-04-24T07:32:10;3.87;;;2.83;;
36185;SDS011;22228;53.222;7.446;2023-04-24T07:34:30;3.47;;;3.20;;
36185;SDS011;22228;53.222;7.446;2023-04-24T07:36:51;2.67;;;2.47;;
36185;SDS011;22228;53.222;7.446;2023-04-24T07:39:11;2.50;;;2.30;;
36185;SDS011;22228;53.222;7.446;2023-04-24T07:41:32;2.67;;;2.57;;
36185;SDS011;22228;53.222;7.446;2023-04-24T07:43:52;2.13;;;2.03;;
36185;SDS011;22228;53.222;7.446;2023-04-24T07:46:14;2.10;;;2.00;;
36185;SDS011;22228;53.222;7.446;2023-04-24T07:48:35;2.00;;;1.90;;
36185;SDS011;22228;53.222;7.446;2023-04-24T07:50:55;2.33;;;2.23;;
36185;SDS011;22228;53.222;7.446;2023-04-24T07:53:16;1.90;;;1.80;;
36185;SDS011;22228;53.222;7.446;2023-04-24T07:55:37;2.13;;;1.63;;
36185;SDS011;22228;53.222;7.446;2023-04-24T07:57:57;1.73;;;1.63;;
36185;SDS011;22228;53.222;7.446;2023-04-24T08:00:18;2.63;;;2.43;;
36185;SDS011;22228;53.222;7.446;2023-04-24T08:02:40;2.37;;;2.20;;
36185;SDS011;22228;53.222;7.446;2023-04-24T08:05:01;4.10;;;2.50;;
36185;SDS011;22228;53.222;7.446;2023-04-24T08:07:22;2.77;;;2.60;;
36185;SDS011;22228;53.222;7.446;2023-04-24T08:09:43;2.90;;;2.70;;
36185;SDS011;22228;53.222;7.446;2023-04-24T08:12:04;2.77;;;2.60;;
36185;SDS011;22228;53.222;7.446;2023-04-24T08:14:24;2.97;;;2.77;;
36185;SDS011;22228;53.222;7.446;2023-04-24T08:16:46;2.87;;;2.63;;
36185;SDS011;22228;53.222;7.446;2023-04-24T08:19:08;3.63;;;3.33;;
36185;SDS011;22228;53.222;7.446;2023-04-24T08:21:28;5.03;;;3.53;;
36185;SDS011;22228;53.222;7.446;2023-04-24T08:23:49;3.53;;;3.33;;
36185;SDS011;22228;53.222;7.446;2023-04-24T08:26:09;3.83;;;3.63;;
36185;SDS011;22228;53.222;7.446;2023-04-24T08:28:30;3.87;;;3.57;;
36185;SDS011;22228;53.222;7.446;2023-04-24T08:30:51;3.77;;;3.57;;
36185;SDS011;22228;53.222;7.446;2023-04-24T08:33:13;3.90;;;3.60;;
36185;SDS011;22228;53.222;7.446;2023-04-24T08:35:35;3.97;;;3.57;;
36185;SDS011;22228;53.222;7.446;2023-04-24T08:37:55;4.03;;;3.73;;
36185;SDS011;22228;53.222;7.446;2023-04-24T08:40:16;4.47;;;4.17;;
36185;SDS011;22228;53.222;7.446;2023-04-24T08:42:37;4.60;;;4.20;;
36185;SDS011;22228;53.222;7.446;2023-04-24T08:44:57;4.40;;;4.10;;
36185;SDS011;22228;53.222;7.446;2023-04-24T08:47:18;5.13;;;4.63;;
36185;SDS011;22228;53.222;7.446;2023-04-24T08:49:40;5.23;;;4.50;;
36185;SDS011;22228;53.222;7.446;2023-04-24T08:52:02;4.33;;;4.03;;
36185;SDS011;22228;53.222;7.446;2023-04-24T08:54:22;4.80;;;4.40;;
36185;SDS011;22228;53.222;7.446;2023-04-24T08:56:44;4.37;;;3.97;;
36185;SDS011;22228;53.222;7.446;2023-04-24T08:59:06;4.10;;;3.73;;
36185;SDS011;22228;53.222;7.446;2023-04-24T09:01:27;3.93;;;3.53;;
36185;SDS011;22228;53.222;7.446;2023-04-24T09:03:49;4.40;;;4.00;;
36185;SDS011;22228;53.222;7.446;2023-04-24T09:06:09;3.37;;;3.13;;
36185;SDS011;22228;53.222;7.446;2023-04-24T09:08:32;3.70;;;3.50;;
36185;SDS011;22228;53.222;7.446;2023-04-24T09:10:53;3.93;;;3.73;;
36185;SDS011;22228;53.222;7.446;2023-04-24T09:13:14;4.63;;;4.30;;
36185;SDS011;22228;53.222;7.446;2023-04-24T09:15:35;4.40;;;4.10;;
36185;SDS011;22228;53.222;7.446;2023-04-24T09:17:56;4.43;;;4.13;;
36185;SDS011;22228;53.222;7.446;2023-04-24T09:20:16;3.83;;;3.43;;
36185;SDS011;22228;53.222;7.446;2023-04-24T09:22:37;4.33;;;3.47;;
36185;SDS011;22228;53.222;7.446;2023-04-24T09:25:06;4.10;;;3.47;;
36185;SDS011;22228;53.222;7.446;2023-04-24T09:27:27;4.60;;;4.13;;
36185;SDS011;22228;53.222;7.446;2023-04-24T09:29:54;3.97;;;3.57;;
36185;SDS011;22228;53.222;7.446;2023-04-24T09:32:18;4.03;;;3.77;;
36185;SDS011;22228;53.222;7.446;2023-04-24T09:34:40;5.20;;;3.90;;
36185;SDS011;22228;53.222;7.446;2023-04-24T09:37:02;6.43;;;4.30;;
36185;SDS011;22228;53.222;7.446;2023-04-24T09:39:24;4.17;;;3.03;;
36185;SDS011;22228;53.222;7.446;2023-04-24T09:41:46;4.77;;;2.73;;
36185;SDS011;22228;53.222;7.446;2023-04-24T09:44:10;2.80;;;2.47;;
36185;SDS011;22228;53.222;7.446;2023-04-24T09:46:32;3.73;;;2.63;;
36185;SDS011;22228;53.222;7.446;2023-04-24T09:48:55;7.77;;;3.97;;
36185;SDS011;22228;53.222;7.446;2023-04-24T09:51:15;5.27;;;4.57;;
36185;SDS011;22228;53.222;7.446;2023-04-24T09:53:36;8.33;;;5.77;;
36185;SDS011;22228;53.222;7.446;2023-04-24T09:56:06;8.33;;;6.40;;
36185;SDS011;22228;53.222;7.446;2023-04-24T09:58:29;7.67;;;6.10;;
36185;SDS011;22228;53.222;7.446;2023-04-24T10:00:49;11.67;;;7.13;;
36185;SDS011;22228;53.222;7.446;2023-04-24T10:03:13;9.07;;;7.97;;
36185;SDS011;22228;53.222;7.446;2023-04-24T10:05:34;11.47;;;8.47;;
36185;SDS011;22228;53.222;7.446;2023-04-24T10:07:56;12.40;;;8.63;;
36185;SDS011;22228;53.222;7.446;2023-04-24T10:10:17;11.80;;;9.60;;
36185;SDS011;22228;53.222;7.446;2023-04-24T10:12:38;13.30;;;9.77;;
36185;SDS011;22228;53.222;7.446;2023-04-24T10:15:00;13.40;;;10.97;;
36185;SDS011;22228;53.222;7.446;2023-04-24T10:17:22;17.57;;;12.17;;
36185;SDS011;22228;53.222;7.446;2023-04-24T10:19:44;23.37;;;16.43;;
36185;SDS011;22228;53.222;7.446;2023-04-24T10:22:06;26.70;;;19.70;;
36185;SDS011;22228;53.222;7.446;2023-04-24T10:24:26;30.80;;;22.77;;
36185;SDS011;22228;53.222;7.446;2023-04-24T10:26:49;34.80;;;23.10;;
36185;SDS011;22228;53.222;7.446;2023-04-24T10:29:10;36.20;;;22.57;;
36185;SDS011;22228;53.222;7.446;2023-04-24T10:31:32;32.90;;;23.77;;
36185;SDS011;22228;53.222;7.446;2023-04-24T10:33:53;33.30;;;22.30;;
36185;SDS011;22228;53.222;7.446;2023-04-24T10:36:15;38.50;;;24.60;;
36185;SDS011;22228;53.222;7.446;2023-04-24T10:38:36;32.83;;;22.10;;
36185;SDS011;22228;53.222;7.446;2023-04-24T10:41:06;32.67;;;22.17;;
36185;SDS011;22228;53.222;7.446;2023-04-24T10:43:28;37.03;;;23.30;;
36185;SDS011;22228;53.222;7.446;2023-04-24T10:46:01;30.73;;;22.67;;
36185;SDS011;22228;53.222;7.446;2023-04-24T10:48:26;28.40;;;20.63;;
36185;SDS011;22228;53.222;7.446;2023-04-24T10:50:47;25.47;;;19.27;;
36185;SDS011;22228;53.222;7.446;2023-04-24T10:53:15;26.17;;;19.57;;
36185;SDS011;22228;53.222;7.446;2023-04-24T10:55:47;25.57;;;18.67;;
36185;SDS011;22228;53.222;7.446;2023-04-24T10:58:35;26.63;;;17.23;;
36185;SDS011;22228;53.222;7.446;2023-04-24T11:00:57;20.97;;;17.07;;
36185;SDS011;22228;53.222;7.446;2023-04-24T11:03:22;19.57;;;15.77;;
36185;SDS011;22228;53.222;7.446;2023-04-24T11:05:52;22.07;;;15.23;;
36185;SDS011;22228;53.222;7.446;2023-04-24T11:08:16;19.93;;;14.27;;
36185;SDS011;22228;53.222;7.446;2023-04-24T11:10:46;20.30;;;13.57;;
36185;SDS011;22228;53.222;7.446;2023-04-24T11:13:14;18.90;;;13.77;;
36185;SDS011;22228;53.222;7.446;2023-04-24T11:15:36;20.77;;;14.37;;
36185;SDS011;22228;53.222;7.446;2023-04-24T11:17:56;20.53;;;14.63;;
36185;SDS011;22228;53.222;7.446;2023-04-24T11:20:18;19.00;;;14.27;;
36185;SDS011;22228;53.222;7.446;2023-04-24T11:22:44;19.07;;;13.53;;
36185;SDS011;22228;53.222;7.446;2023-04-24T11:25:05;23.47;;;11.03;;
36185;SDS011;22228;53.222;7.446;2023-04-24T11:27:28;20.03;;;11.60;;
36185;SDS011;22228;53.222;7.446;2023-04-24T11:29:58;19.50;;;11.60;;
36185;SDS011;22228;53.222;7.446;2023-04-24T11:32:24;26.93;;;12.57;;
36185;SDS011;22228;53.222;7.446;2023-04-24T11:34:46;24.07;;;11.97;;
36185;SDS011;22228;53.222;7.446;2023-04-24T11:37:09;16.80;;;11.63;;
36185;SDS011;22228;53.222;7.446;2023-04-24T11:39:36;20.03;;;12.07;;
36185;SDS011;22228;53.222;7.446;2023-04-24T11:42:01;23.73;;;11.80;;
36185;SDS011;22228;53.222;7.446;2023-04-24T11:44:22;25.80;;;11.90;;
36185;SDS011;22228;53.222;7.446;2023-04-24T11:46:44;16.10;;;11.33;;
36185;SDS011;22228;53.222;7.446;2023-04-24T11:49:05;16.70;;;10.93;;
36185;SDS011;22228;53.222;7.446;2023-04-24T11:51:26;14.27;;;9.93;;
36185;SDS011;22228;53.222;7.446;2023-04-24T11:53:48;14.37;;;8.10;;
36185;SDS011;22228;53.222;7.446;2023-04-24T11:56:09;12.73;;;8.10;;
36185;SDS011;22228;53.222;7.446;2023-04-24T11:58:34;10.53;;;7.97;;
36185;SDS011;22228;53.222;7.446;2023-04-24T12:00:56;12.00;;;8.63;;
36185;SDS011;22228;53.222;7.446;2023-04-24T12:03:18;12.63;;;7.87;;
36185;SDS011;22228;53.222;7.446;2023-04-24T12:05:39;11.13;;;7.23;;
36185;SDS011;22228;53.222;7.446;2023-04-24T12:07:59;10.83;;;7.00;;
36185;SDS011;22228;53.222;7.446;2023-04-24T12:10:21;14.10;;;7.87;;
36185;SDS011;22228;53.222;7.446;2023-04-24T12:12:43;13.97;;;7.20;;
36185;SDS011;22228;53.222;7.446;2023-04-24T12:15:06;11.97;;;7.63;;
36185;SDS011;22228;53.222;7.446;2023-04-24T12:17:28;11.67;;;6.53;;
36185;SDS011;22228;53.222;7.446;2023-04-24T12:19:49;9.53;;;6.47;;
36185;SDS011;22228;53.222;7.446;2023-04-24T12:22:10;6.67;;;5.60;;
36185;SDS011;22228;53.222;7.446;2023-04-24T12:24:31;14.17;;;5.23;;
36185;SDS011;22228;53.222;7.446;2023-04-24T12:26:52;10.03;;;4.60;;
36185;SDS011;22228;53.222;7.446;2023-04-24T12:29:19;6.60;;;4.10;;
36185;SDS011;22228;53.222;7.446;2023-04-24T12:31:39;6.10;;;3.10;;
36185;SDS011;22228;53.222;7.446;2023-04-24T12:34:00;11.33;;;4.03;;
36185;SDS011;22228;53.222;7.446;2023-04-24T12:36:21;7.23;;;3.90;;
36185;SDS011;22228;53.222;7.446;2023-04-24T12:38:43;5.80;;;4.43;;
36185;SDS011;22228;53.222;7.446;2023-04-24T12:41:05;6.27;;;4.00;;
36185;SDS011;22228;53.222;7.446;2023-04-24T12:43:28;8.53;;;4.07;;
36185;SDS011;22228;53.222;7.446;2023-04-24T12:45:49;8.87;;;3.53;;
36185;SDS011;22228;53.222;7.446;2023-04-24T12:48:09;7.87;;;2.73;;
36185;SDS011;22228;53.222;7.446;2023-04-24T12:50:30;5.40;;;2.80;;
36185;SDS011;22228;53.222;7.446;2023-04-24T12:52:51;5.33;;;2.73;;
36185;SDS011;22228;53.222;7.446;2023-04-24T12:55:11;6.23;;;2.70;;
36185;SDS011;22228;53.222;7.446;2023-04-24T12:57:32;7.93;;;3.43;;
36185;SDS011;22228;53.222;7.446;2023-04-24T12:59:54;5.43;;;2.30;;
36185;SDS011;22228;53.222;7.446;2023-04-24T13:02:15;5.23;;;2.50;;
36185;SDS011;22228;53.222;7.446;2023-04-24T13:04:36;3.70;;;2.70;;
36185;SDS011;22228;53.222;7.446;2023-04-24T13:06:57;8.03;;;3.20;;
36185;SDS011;22228;53.222;7.446;2023-04-24T13:09:18;4.60;;;2.00;;
36185;SDS011;22228;53.222;7.446;2023-04-24T13:11:39;2.30;;;1.53;;
36185;SDS011;22228;53.222;7.446;2023-04-24T13:13:59;2.63;;;1.47;;
36185;SDS011;22228;53.222;7.446;2023-04-24T13:16:21;3.43;;;1.60;;
36185;SDS011;22228;53.222;7.446;2023-04-24T13:18:42;4.33;;;1.40;;
36185;SDS011;22228;53.222;7.446;2023-04-24T13:21:02;3.93;;;1.90;;
36185;SDS011;22228;53.222;7.446;2023-04-24T13:23:23;2.53;;;1.40;;
36185;SDS011;22228;53.222;7.446;2023-04-24T13:25:44;6.10;;;1.90;;
36185;SDS011;22228;53.222;7.446;2023-04-24T13:28:05;4.33;;;1.50;;
36185;SDS011;22228;53.222;7.446;2023-04-24T13:30:26;3.73;;;1.43;;
36185;SDS011;22228;53.222;7.446;2023-04-24T13:32:48;4.07;;;1.37;;
36185;SDS011;22228;53.222;7.446;2023-04-24T13:35:08;4.40;;;1.70;;
36185;SDS011;22228;53.222;7.446;2023-04-24T13:37:29;4.53;;;1.47;;
36185;SDS011;22228;53.222;7.446;2023-04-24T13:39:50;4.87;;;2.03;;
36185;SDS011;22228;53.222;7.446;2023-04-24T13:42:11;3.57;;;1.70;;
36185;SDS011;22228;53.222;7.446;2023-04-24T13:44:31;3.27;;;1.20;;
36185;SDS011;22228;53.222;7.446;2023-04-24T13:46:52;2.93;;;1.43;;
36185;SDS011;22228;53.222;7.446;2023-04-24T13:49:16;4.77;;;1.90;;
36185;SDS011;22228;53.222;7.446;2023-04-24T13:51:38;4.00;;;1.87;;
36185;SDS011;22228;53.222;7.446;2023-04-24T13:53:59;6.53;;;1.67;;
36185;SDS011;22228;53.222;7.446;2023-04-24T13:56:20;4.83;;;1.50;;
36185;SDS011;22228;53.222;7.446;2023-04-24T13:58:42;4.30;;;1.53;;
36185;SDS011;22228;53.222;7.446;2023-04-24T14:01:02;3.90;;;1.33;;
36185;SDS011;22228;53.222;7.446;2023-04-24T14:03:23;5.87;;;1.70;;
36185;SDS011;22228;53.222;7.446;2023-04-24T14:05:45;6.70;;;1.73;;
36185;SDS011;22228;53.222;7.446;2023-04-24T14:08:05;5.50;;;2.13;;
36185;SDS011;22228;53.222;7.446;2023-04-24T14:10:26;6.50;;;1.63;;
36185;SDS011;22228;53.222;7.446;2023-04-24T14:12:47;2.03;;;1.20;;
36185;SDS011;22228;53.222;7.446;2023-04-24T14:15:08;3.83;;;1.43;;
36185;SDS011;22228;53.222;7.446;2023-04-24T14:17:29;7.27;;;1.70;;
36185;SDS011;22228;53.222;7.446;2023-04-24T14:19:50;4.57;;;1.53;;
36185;SDS011;22228;53.222;7.446;2023-04-24T14:22:12;6.43;;;1.77;;
36185;SDS011;22228;53.222;7.446;2023-04-24T14:24:32;4.17;;;1.30;;
36185;SDS011;22228;53.222;7.446;2023-04-24T14:26:53;5.37;;;1.17;;
36185;SDS011;22228;53.222;7.446;2023-04-24T14:29:15;4.10;;;1.00;;
36185;SDS011;22228;53.222;7.446;2023-04-24T14:31:36;3.10;;;1.20;;
36185;SDS011;22228;53.222;7.446;2023-04-24T14:33:56;2.93;;;1.30;;
36185;SDS011;22228;53.222;7.446;2023-04-24T14:36:17;2.23;;;0.93;;
36185;SDS011;22228;53.222;7.446;2023-04-24T14:38:39;3.47;;;1.20;;
36185;SDS011;22228;53.222;7.446;2023-04-24T14:41:00;4.27;;;1.20;;
36185;SDS011;22228;53.222;7.446;2023-04-24T14:43:26;2.33;;;0.93;;
36185;SDS011;22228;53.222;7.446;2023-04-24T14:45:47;2.80;;;1.20;;
36185;SDS011;22228;53.222;7.446;2023-04-24T14:48:08;4.30;;;1.20;;
36185;SDS011;22228;53.222;7.446;2023-04-24T14:50:29;4.23;;;1.00;;
36185;SDS011;22228;53.222;7.446;2023-04-24T14:52:50;1.27;;;1.10;;
36185;SDS011;22228;53.222;7.446;2023-04-24T14:55:12;4.40;;;0.93;;
36185;SDS011;22228;53.222;7.446;2023-04-24T14:57:33;3.17;;;0.87;;
36185;SDS011;22228;53.222;7.446;2023-04-24T14:59:58;5.17;;;1.30;;
36185;SDS011;22228;53.222;7.446;2023-04-24T15:02:24;2.83;;;1.20;;
36185;SDS011;22228;53.222;7.446;2023-04-24T15:04:45;2.53;;;1.23;;
36185;SDS011;22228;53.222;7.446;2023-04-24T15:07:07;2.80;;;1.00;;
36185;SDS011;22228;53.222;7.446;2023-04-24T15:09:27;2.20;;;1.30;;
36185;SDS011;22228;53.222;7.446;2023-04-24T15:11:51;4.07;;;1.27;;
36185;SDS011;22228;53.222;7.446;2023-04-24T15:14:12;3.43;;;1.00;;
36185;SDS011;22228;53.222;7.446;2023-04-24T15:16:33;2.67;;;1.37;;
36185;SDS011;22228;53.222;7.446;2023-04-24T15:18:54;2.17;;;1.50;;
36185;SDS011;22228;53.222;7.446;2023-04-24T15:21:15;4.03;;;1.40;;
36185;SDS011;22228;53.222;7.446;2023-04-24T15:23:36;3.13;;;1.50;;
36185;SDS011;22228;53.222;7.446;2023-04-24T15:25:56;4.70;;;1.93;;
36185;SDS011;22228;53.222;7.446;2023-04-24T15:28:18;4.53;;;2.10;;
36185;SDS011;22228;53.222;7.446;2023-04-24T15:30:40;5.30;;;3.03;;
36185;SDS011;22228;53.222;7.446;2023-04-24T15:33:00;8.20;;;2.23;;
36185;SDS011;22228;53.222;7.446;2023-04-24T15:35:21;3.30;;;1.90;;
36185;SDS011;22228;53.222;7.446;2023-04-24T15:37:41;2.93;;;1.77;;
36185;SDS011;22228;53.222;7.446;2023-04-24T15:40:02;5.43;;;2.13;;
36185;SDS011;22228;53.222;7.446;2023-04-24T15:42:24;3.43;;;2.30;;
36185;SDS011;22228;53.222;7.446;2023-04-24T15:44:46;7.53;;;3.20;;
36185;SDS011;22228;53.222;7.446;2023-04-24T15:47:06;3.80;;;2.43;;
36185;SDS011;22228;53.222;7.446;2023-04-24T15:49:27;3.70;;;2.27;;
36185;SDS011;22228;53.222;7.446;2023-04-24T15:51:48;4.53;;;2.90;;
36185;SDS011;22228;53.222;7.446;2023-04-24T15:54:08;6.83;;;2.67;;
36185;SDS011;22228;53.222;7.446;2023-04-24T15:56:28;4.53;;;2.40;;
36185;SDS011;22228;53.222;7.446;2023-04-24T15:58:49;6.50;;;2.83;;
36185;SDS011;22228;53.222;7.446;2023-04-24T16:01:11;3.87;;;3.00;;
36185;SDS011;22228;53.222;7.446;2023-04-24T16:03:31;7.27;;;4.17;;
36185;SDS011;22228;53.222;7.446;2023-04-24T16:05:52;7.10;;;3.13;;
36185;SDS011;22228;53.222;7.446;2023-04-24T16:08:12;7.13;;;2.97;;
36185;SDS011;22228;53.222;7.446;2023-04-24T16:10:33;5.73;;;2.90;;
36185;SDS011;22228;53.222;7.446;2023-04-24T16:12:53;11.20;;;3.50;;
36185;SDS011;22228;53.222;7.446;2023-04-24T16:15:13;7.33;;;3.63;;
36185;SDS011;22228;53.222;7.446;2023-04-24T16:17:35;8.63;;;4.20;;
36185;SDS011;22228;53.222;7.446;2023-04-24T16:19:56;4.23;;;3.37;;
36185;SDS011;22228;53.222;7.446;2023-04-24T16:22:16;12.57;;;3.47;;
36185;SDS011;22228;53.222;7.446;2023-04-24T16:24:36;7.47;;;3.60;;
36185;SDS011;22228;53.222;7.446;2023-04-24T16:26:57;11.93;;;4.37;;
36185;SDS011;22228;53.222;7.446;2023-04-24T16:29:18;10.90;;;4.23;;
36185;SDS011;22228;53.222;7.446;2023-04-24T16:31:39;8.97;;;5.40;;
36185;SDS011;22228;53.222;7.446;2023-04-24T16:34:01;10.33;;;4.93;;
36185;SDS011;22228;53.222;7.446;2023-04-24T16:36:21;8.53;;;3.93;;
36185;SDS011;22228;53.222;7.446;2023-04-24T16:38:42;7.37;;;4.43;;
36185;SDS011;22228;53.222;7.446;2023-04-24T16:41:02;13.03;;;3.80;;
36185;SDS011;22228;53.222;7.446;2023-04-24T16:43:22;8.80;;;3.43;;
36185;SDS011;22228;53.222;7.446;2023-04-24T16:45:44;10.50;;;3.97;;
36185;SDS011;22228;53.222;7.446;2023-04-24T16:48:05;10.97;;;3.30;;
36185;SDS011;22228;53.222;7.446;2023-04-24T16:50:30;7.30;;;3.73;;
36185;SDS011;22228;53.222;7.446;2023-04-24T16:52:50;6.97;;;3.30;;
36185;SDS011;22228;53.222;7.446;2023-04-24T16:55:11;8.03;;;3.43;;
36185;SDS011;22228;53.222;7.446;2023-04-24T16:57:31;8.50;;;4.20;;